createdAt,value
2017-10-26T00:02:27.476Z,10.40
2017-10-26T00:04:55.559Z,10.40
2017-10-26T00:07:23.863Z,10.30
2017-10-26T00:09:52.719Z,10.30
2017-10-26T00:12:20.804Z,10.30
2017-10-26T00:14:48.889Z,10.30
2017-10-26T00:17:16.970Z,10.30
2017-10-26T00:19:45.824Z,10.10
2017-10-26T00:22:13.895Z,10.10
2017-10-26T00:24:41.988Z,10.00
2017-10-26T00:27:10.063Z,10.00
2017-10-26T00:29:38.143Z,10.10
2017-10-26T00:32:06.245Z,10.10
2017-10-26T00:34:34.337Z,10.10
2017-10-26T00:37:02.425Z,10.20
2017-10-26T00:39:30.511Z,10.20
2017-10-26T00:41:58.596Z,10.30
2017-10-26T00:44:26.685Z,10.20
2017-10-26T00:46:55.540Z,10.20
2017-10-26T00:49:23.647Z,10.20
2017-10-26T00:51:52.504Z,10.20
2017-10-26T00:54:20.596Z,10.20
2017-10-26T00:56:48.681Z,10.20
2017-10-26T00:59:16.768Z,10.30
2017-10-26T01:01:45.616Z,10.40
2017-10-26T01:04:13.743Z,10.40
2017-10-26T01:06:41.816Z,10.40
2017-10-26T01:09:09.912Z,10.50
2017-10-26T01:11:38.760Z,10.40
2017-10-26T01:14:07.618Z,10.30
2017-10-26T01:16:35.705Z,10.30
2017-10-26T01:19:03.791Z,10.40
2017-10-26T01:21:32.640Z,10.40
2017-10-26T01:24:00.735Z,10.40
2017-10-26T01:26:28.823Z,10.40
2017-10-26T01:28:57.688Z,10.40
2017-10-26T01:31:25.777Z,10.40
2017-10-26T01:33:53.873Z,10.40
2017-10-26T01:36:22.732Z,10.40
2017-10-26T01:38:50.811Z,10.40
2017-10-26T01:41:18.892Z,10.50
2017-10-26T01:43:46.988Z,10.50
2017-10-26T01:46:15.835Z,10.50
2017-10-26T01:48:43.932Z,10.50
2017-10-26T01:51:12.016Z,10.50
2017-10-26T01:53:40.870Z,10.50
2017-10-26T01:56:08.960Z,10.50
2017-10-26T01:58:37.051Z,10.40
2017-10-26T02:01:05.131Z,10.40
2017-10-26T02:03:33.983Z,10.50
2017-10-26T02:06:02.068Z,10.50
2017-10-26T02:08:30.163Z,10.50
2017-10-26T02:10:59.017Z,10.50
2017-10-26T02:13:27.117Z,10.50
2017-10-26T02:15:55.207Z,10.60
2017-10-26T02:18:24.068Z,10.60
2017-10-26T02:20:52.148Z,10.60
2017-10-26T02:23:20.239Z,10.60
2017-10-26T02:25:49.088Z,10.60
2017-10-26T02:28:21.211Z,10.60
2017-10-26T02:33:57.465Z,10.60
2017-10-26T02:36:25.549Z,10.60
2017-10-26T02:38:54.404Z,10.70
2017-10-26T02:41:22.492Z,10.70
2017-10-26T02:43:50.581Z,10.70
2017-10-26T02:46:19.458Z,10.70
2017-10-26T02:48:48.362Z,10.70
2017-10-26T02:51:16.435Z,10.70
2017-10-26T02:53:45.298Z,10.70
2017-10-26T02:56:13.374Z,10.70
2017-10-26T02:58:41.474Z,10.70
2017-10-26T03:01:09.556Z,10.80
2017-10-26T03:03:38.404Z,10.90
2017-10-26T03:06:06.480Z,10.90
2017-10-26T03:08:34.576Z,10.90
2017-10-26T03:11:02.644Z,10.90
2017-10-26T03:13:30.866Z,10.90
2017-10-26T03:15:58.943Z,10.90
2017-10-26T03:18:27.987Z,10.90
2017-10-26T03:20:56.081Z,10.90
2017-10-26T03:23:24.191Z,11.00
2017-10-26T03:25:52.284Z,11.00
2017-10-26T03:28:20.456Z,11.00
2017-10-26T03:30:48.772Z,11.00
2017-10-26T03:33:17.622Z,11.00
2017-10-26T03:35:45.716Z,11.00
2017-10-26T03:38:13.799Z,11.00
2017-10-26T03:40:41.897Z,11.00
2017-10-26T03:43:10.756Z,11.00
2017-10-26T03:45:38.856Z,11.00
2017-10-26T03:48:07.702Z,11.00
2017-10-26T03:50:36.617Z,11.10
2017-10-26T03:53:04.693Z,11.10
2017-10-26T03:55:32.783Z,11.10
2017-10-26T03:58:01.631Z,11.10
2017-10-26T04:00:29.746Z,11.10
2017-10-26T04:02:58.592Z,11.20
2017-10-26T04:05:26.698Z,11.20
2017-10-26T04:07:54.776Z,11.20
2017-10-26T04:10:23.636Z,11.30
2017-10-26T04:12:51.735Z,11.30
2017-10-26T04:15:19.830Z,11.40
2017-10-26T04:17:47.900Z,11.40
2017-10-26T04:20:16.002Z,11.40
2017-10-26T04:22:44.084Z,11.40
2017-10-26T04:25:12.185Z,11.40
2017-10-26T04:27:40.268Z,11.40
2017-10-26T04:30:08.351Z,11.40
2017-10-26T04:32:37.204Z,11.30
2017-10-26T04:35:05.743Z,11.30
2017-10-26T04:37:33.836Z,11.30
2017-10-26T04:40:01.925Z,11.30
2017-10-26T04:42:30.017Z,11.30
2017-10-26T04:44:58.135Z,11.30
2017-10-26T04:47:26.244Z,11.30
2017-10-26T04:49:54.347Z,11.30
2017-10-26T04:52:22.431Z,11.30
2017-10-26T04:54:51.302Z,11.30
2017-10-26T04:57:19.375Z,11.30
2017-10-26T04:59:47.467Z,11.40
2017-10-26T05:02:16.371Z,11.40
2017-10-26T05:04:45.234Z,11.30
2017-10-26T05:07:13.316Z,11.30
2017-10-26T05:09:41.408Z,11.30
2017-10-26T05:12:10.271Z,11.30
2017-10-26T05:14:38.357Z,11.30
2017-10-26T05:17:07.221Z,11.40
2017-10-26T05:19:35.332Z,11.30
2017-10-26T05:22:04.191Z,11.40
2017-10-26T05:24:32.280Z,11.40
2017-10-26T05:27:00.356Z,11.40
2017-10-26T05:29:28.439Z,11.40
2017-10-26T05:31:57.316Z,11.50
2017-10-26T05:34:25.410Z,11.40
2017-10-26T05:36:54.268Z,11.40
2017-10-26T05:39:22.369Z,11.40
2017-10-26T05:41:51.221Z,11.40
2017-10-26T05:44:19.315Z,11.40
2017-10-26T05:46:47.394Z,11.40
2017-10-26T05:49:15.466Z,11.40
2017-10-26T05:51:44.323Z,11.40
2017-10-26T05:54:12.412Z,11.40
2017-10-26T05:56:40.507Z,11.40
2017-10-26T05:59:09.366Z,11.40
2017-10-26T06:01:37.468Z,11.40
2017-10-26T06:04:06.329Z,11.40
2017-10-26T06:06:34.426Z,11.40
2017-10-26T06:09:03.281Z,11.40
2017-10-26T06:11:31.380Z,11.40
2017-10-26T06:13:59.460Z,11.40
2017-10-26T06:16:27.547Z,11.40
2017-10-26T06:18:56.400Z,11.40
2017-10-26T06:21:24.489Z,11.40
2017-10-26T06:23:52.571Z,11.40
2017-10-26T06:26:20.657Z,11.50
2017-10-26T06:28:49.531Z,11.50
2017-10-26T06:31:17.620Z,11.50
2017-10-26T06:33:46.469Z,11.60
2017-10-26T06:36:14.560Z,11.60
2017-10-26T06:38:42.653Z,11.60
2017-10-26T06:41:11.515Z,11.50
2017-10-26T06:43:39.606Z,11.50
2017-10-26T06:46:08.476Z,11.50
2017-10-26T06:48:36.572Z,11.50
2017-10-26T06:51:04.656Z,11.50
2017-10-26T06:53:34.417Z,11.50
2017-10-26T06:56:02.519Z,11.50
2017-10-26T06:58:30.612Z,11.50
2017-10-26T07:00:59.477Z,11.50
2017-10-26T07:03:27.563Z,11.60
2017-10-26T07:05:55.656Z,11.60
2017-10-26T07:08:24.598Z,11.60
2017-10-26T07:10:52.674Z,11.60
2017-10-26T07:13:20.754Z,11.70
2017-10-26T07:15:48.849Z,11.70
2017-10-26T07:18:16.936Z,11.80
2017-10-26T07:20:45.789Z,11.90
2017-10-26T07:23:13.889Z,11.90
2017-10-26T07:25:42.963Z,11.80
2017-10-26T07:28:11.052Z,11.80
2017-10-26T07:30:39.178Z,11.80
2017-10-26T07:33:08.041Z,11.80
2017-10-26T07:35:36.902Z,11.90
2017-10-26T07:38:04.996Z,11.90
2017-10-26T07:40:33.847Z,11.90
2017-10-26T07:43:01.937Z,11.90
2017-10-26T07:45:30.030Z,11.90
2017-10-26T07:47:58.901Z,11.90
2017-10-26T07:50:26.981Z,11.90
2017-10-26T07:52:55.090Z,12.00
2017-10-26T07:55:23.184Z,12.00
2017-10-26T07:57:52.030Z,12.00
2017-10-26T08:00:20.895Z,12.10
2017-10-26T08:02:48.984Z,12.00
2017-10-26T08:05:17.068Z,12.10
2017-10-26T08:07:45.936Z,12.20
2017-10-26T08:10:14.029Z,12.20
2017-10-26T08:12:42.894Z,12.40
2017-10-26T08:15:10.981Z,12.40
2017-10-26T08:17:39.071Z,12.50
2017-10-26T08:20:07.921Z,12.60
2017-10-26T08:22:36.010Z,12.60
2017-10-26T08:25:04.118Z,12.50
2017-10-26T08:27:32.988Z,12.50
2017-10-26T08:30:01.080Z,12.50
2017-10-26T08:32:29.957Z,12.60
2017-10-26T08:34:58.816Z,12.70
2017-10-26T08:37:26.908Z,12.70
2017-10-26T08:39:55.009Z,12.70
2017-10-26T08:42:23.866Z,12.80
2017-10-26T08:44:51.951Z,12.80
2017-10-26T08:47:20.052Z,12.80
2017-10-26T08:49:48.149Z,12.80
2017-10-26T08:52:16.239Z,12.90
2017-10-26T08:54:44.327Z,13.00
2017-10-26T08:57:12.468Z,13.00
2017-10-26T08:59:40.551Z,13.00
2017-10-26T09:02:09.411Z,13.10
2017-10-26T09:04:37.511Z,13.00
2017-10-26T09:07:05.618Z,13.00
2017-10-26T09:09:33.705Z,13.00
2017-10-26T09:12:02.581Z,13.00
2017-10-26T09:14:30.668Z,13.00
2017-10-26T09:16:59.529Z,13.20
2017-10-26T09:19:27.616Z,13.20
2017-10-26T09:21:55.716Z,13.20
2017-10-26T09:24:24.560Z,13.40
2017-10-26T09:26:52.661Z,13.40
2017-10-26T09:29:20.743Z,13.40
2017-10-26T09:31:49.624Z,13.50
2017-10-26T09:34:17.700Z,13.50
2017-10-26T09:36:45.796Z,13.50
2017-10-26T09:39:13.912Z,13.50
2017-10-26T09:41:41.997Z,13.60
2017-10-26T09:44:10.088Z,13.60
2017-10-26T09:46:38.180Z,13.60
2017-10-26T09:49:07.034Z,13.70
2017-10-26T09:51:35.129Z,13.70
2017-10-26T09:54:03.277Z,13.80
2017-10-26T09:56:32.173Z,13.70
2017-10-26T09:59:00.292Z,13.60
2017-10-26T10:01:28.372Z,13.60
2017-10-26T10:03:56.471Z,13.60
2017-10-26T10:06:24.563Z,13.70
2017-10-26T10:08:52.653Z,13.70
2017-10-26T10:11:20.736Z,13.70
2017-10-26T10:13:48.824Z,13.80
2017-10-26T10:16:17.675Z,13.80
2017-10-26T10:18:45.768Z,13.80
2017-10-26T10:21:14.648Z,14.00
2017-10-26T10:23:42.743Z,13.90
2017-10-26T10:26:11.608Z,14.00
2017-10-26T10:28:39.736Z,13.90
2017-10-26T10:31:07.825Z,14.00
2017-10-26T10:33:35.943Z,14.00
2017-10-26T10:36:04.040Z,14.00
2017-10-26T10:38:32.888Z,14.00
2017-10-26T10:41:00.988Z,14.00
2017-10-26T10:43:29.869Z,13.90
2017-10-26T10:45:57.952Z,13.90
2017-10-26T10:48:26.815Z,14.10
2017-10-26T10:50:54.897Z,14.10
2017-10-26T10:53:22.980Z,14.00
2017-10-26T10:55:51.068Z,14.10
2017-10-26T10:58:19.921Z,14.30
2017-10-26T11:00:48.008Z,14.30
2017-10-26T11:03:16.092Z,14.20
2017-10-26T11:05:44.176Z,14.20
2017-10-26T11:08:13.044Z,14.20
2017-10-26T11:10:41.129Z,14.20
2017-10-26T11:13:09.217Z,14.20
2017-10-26T11:15:38.073Z,14.20
2017-10-26T11:18:06.173Z,14.20
2017-10-26T11:20:35.029Z,14.10
2017-10-26T11:23:03.119Z,14.10
2017-10-26T11:25:31.210Z,14.10
2017-10-26T11:28:00.078Z,14.30
2017-10-26T11:30:28.143Z,14.30
2017-10-26T11:32:56.254Z,14.30
2017-10-26T11:35:25.111Z,14.50
2017-10-26T11:37:53.213Z,14.50
2017-10-26T11:40:22.064Z,14.60
2017-10-26T11:42:50.160Z,14.60
2017-10-26T11:45:19.028Z,14.60
2017-10-26T11:47:47.115Z,14.60
2017-10-26T11:50:15.199Z,14.70
2017-10-26T11:52:44.065Z,14.80
2017-10-26T11:55:12.147Z,14.80
2017-10-26T11:57:40.244Z,14.80
2017-10-26T12:00:09.102Z,14.70
2017-10-26T12:02:37.196Z,14.60
2017-10-26T12:05:05.277Z,14.70
2017-10-26T12:07:34.153Z,14.90
2017-10-26T12:10:02.224Z,14.80
2017-10-26T12:12:30.330Z,14.90
2017-10-26T12:14:59.213Z,15.10
2017-10-26T12:17:28.083Z,14.90
2017-10-26T12:19:56.161Z,14.90
2017-10-26T12:22:24.248Z,14.70
2017-10-26T12:24:53.107Z,14.70
2017-10-26T12:27:21.202Z,14.70
2017-10-26T12:29:49.287Z,14.70
2017-10-26T12:32:18.172Z,14.70
2017-10-26T12:34:47.041Z,14.70
2017-10-26T12:37:15.137Z,14.60
2017-10-26T12:39:43.219Z,14.70
2017-10-26T12:42:12.059Z,14.80
2017-10-26T12:44:40.161Z,14.80
2017-10-26T12:47:08.259Z,14.80
2017-10-26T12:49:37.122Z,14.90
2017-10-26T12:52:05.226Z,14.80
2017-10-26T12:54:34.083Z,15.00
2017-10-26T12:57:02.171Z,14.90
2017-10-26T12:59:31.066Z,15.10
2017-10-26T13:01:59.960Z,15.30
2017-10-26T13:04:28.816Z,15.20
2017-10-26T13:06:56.909Z,15.20
2017-10-26T13:09:25.032Z,15.30
2017-10-26T13:11:53.113Z,15.40
2017-10-26T13:14:21.208Z,15.40
2017-10-26T13:16:49.292Z,15.50
2017-10-26T13:19:17.380Z,15.50
2017-10-26T13:21:45.468Z,15.50
2017-10-26T13:24:14.363Z,15.40
2017-10-26T13:26:43.207Z,15.40
2017-10-26T13:29:11.300Z,15.40
2017-10-26T13:31:39.396Z,15.40
2017-10-26T13:34:08.265Z,15.40
2017-10-26T13:36:36.340Z,15.40
2017-10-26T13:39:04.441Z,15.40
2017-10-26T13:41:32.525Z,15.50
2017-10-26T13:44:00.631Z,15.50
2017-10-26T13:46:28.719Z,15.40
2017-10-26T13:48:56.828Z,15.30
2017-10-26T13:51:25.679Z,15.40
2017-10-26T13:53:53.780Z,15.40
2017-10-26T13:56:22.625Z,15.40
2017-10-26T13:58:50.741Z,15.40
2017-10-26T14:01:19.606Z,15.30
2017-10-26T14:03:47.695Z,15.30
2017-10-26T14:06:15.791Z,15.30
2017-10-26T14:08:43.900Z,15.40
2017-10-26T14:11:12.004Z,15.40
2017-10-26T14:13:40.088Z,15.30
2017-10-26T14:16:08.184Z,15.30
2017-10-26T14:18:37.028Z,15.30
2017-10-26T14:21:05.119Z,15.30
2017-10-26T14:23:33.204Z,15.20
2017-10-26T14:26:02.079Z,15.20
2017-10-26T14:28:30.171Z,15.20
2017-10-26T14:30:59.025Z,15.30
2017-10-26T14:33:27.120Z,15.30
2017-10-26T14:35:55.205Z,15.20
2017-10-26T14:38:24.082Z,15.20
2017-10-26T14:40:52.177Z,15.20
2017-10-26T14:43:21.041Z,15.30
2017-10-26T14:45:49.120Z,15.30
2017-10-26T14:48:17.213Z,15.30
2017-10-26T14:50:46.072Z,15.30
2017-10-26T14:53:14.164Z,15.40
2017-10-26T14:55:43.029Z,15.30
2017-10-26T14:58:11.124Z,15.30
2017-10-26T15:00:39.207Z,15.20
2017-10-26T15:03:08.067Z,15.20
2017-10-26T15:05:36.164Z,15.20
2017-10-26T15:08:04.258Z,15.30
2017-10-26T15:10:32.372Z,15.20
2017-10-26T15:13:00.483Z,15.20
2017-10-26T15:15:28.576Z,15.20
2017-10-26T15:17:57.419Z,15.30
2017-10-26T15:20:25.504Z,15.30
2017-10-26T15:22:53.598Z,15.20
2017-10-26T15:25:22.468Z,15.20
2017-10-26T15:27:50.555Z,15.20
2017-10-26T15:30:18.632Z,15.20
2017-10-26T15:32:46.708Z,15.30
2017-10-26T15:35:15.560Z,15.20
2017-10-26T15:37:43.633Z,15.20
2017-10-26T15:40:11.716Z,15.20
2017-10-26T15:42:39.798Z,15.20
2017-10-26T15:45:07.881Z,15.20
2017-10-26T15:47:35.952Z,15.20
2017-10-26T15:50:04.040Z,15.10
2017-10-26T15:52:32.884Z,14.90
2017-10-26T15:55:00.963Z,14.90
2017-10-26T15:57:29.061Z,14.90
2017-10-26T15:59:57.143Z,14.90
2017-10-26T16:02:25.220Z,14.90
2017-10-26T16:04:54.059Z,14.80
2017-10-26T16:07:22.159Z,14.80
2017-10-26T16:09:50.247Z,14.80
2017-10-26T16:12:18.325Z,14.80
2017-10-26T16:14:47.240Z,14.80
2017-10-26T16:17:15.347Z,14.80
2017-10-26T16:19:43.456Z,14.90
2017-10-26T16:22:11.547Z,15.00
2017-10-26T16:24:40.394Z,14.90
2017-10-26T16:27:08.564Z,14.90
2017-10-26T16:29:36.661Z,14.90
2017-10-26T16:32:04.736Z,14.90
2017-10-26T16:34:32.826Z,14.90
2017-10-26T16:37:01.689Z,14.90
2017-10-26T16:39:29.784Z,14.90
2017-10-26T16:41:58.646Z,14.90
2017-10-26T16:44:26.735Z,14.90
2017-10-26T16:46:54.825Z,14.90
2017-10-26T16:49:23.714Z,14.80
2017-10-26T16:51:52.578Z,14.90
2017-10-26T16:54:20.670Z,14.80
2017-10-26T16:56:49.565Z,14.80
2017-10-26T16:59:18.429Z,14.80
2017-10-26T17:01:46.525Z,14.80
2017-10-26T17:04:15.388Z,14.80
2017-10-26T17:06:43.474Z,14.80
2017-10-26T17:09:11.577Z,14.80
2017-10-26T17:11:40.450Z,14.80
2017-10-26T17:14:08.539Z,14.80
2017-10-26T17:16:37.393Z,14.80
2017-10-26T17:19:05.544Z,14.80
2017-10-26T17:21:34.605Z,14.90
2017-10-26T17:24:03.473Z,14.90
2017-10-26T17:26:31.614Z,14.80
2017-10-26T17:28:59.722Z,14.80
2017-10-26T17:31:27.795Z,14.90
2017-10-26T17:33:55.893Z,14.90
2017-10-26T17:36:23.986Z,14.90
2017-10-26T17:38:52.085Z,14.80
2017-10-26T17:41:20.160Z,14.80
2017-10-26T17:43:48.253Z,14.80
2017-10-26T17:46:16.341Z,14.80
2017-10-26T17:48:45.202Z,14.80
2017-10-26T17:51:13.298Z,14.80
2017-10-26T17:53:42.195Z,14.80
2017-10-26T17:56:11.062Z,14.70
2017-10-26T17:58:39.157Z,14.70
2017-10-26T18:01:08.015Z,14.70
2017-10-26T18:03:36.093Z,14.70
2017-10-26T18:06:04.179Z,14.60
2017-10-26T18:08:32.321Z,14.60
2017-10-26T18:11:00.414Z,14.60
2017-10-26T18:13:28.500Z,14.60
2017-10-26T18:15:56.598Z,14.60
2017-10-26T18:18:24.692Z,14.60
2017-10-26T18:20:52.785Z,14.60
2017-10-26T18:23:20.868Z,14.50
2017-10-26T18:25:48.964Z,14.50
2017-10-26T18:28:17.047Z,14.50
2017-10-26T18:30:45.143Z,14.60
2017-10-26T18:33:13.232Z,14.60
2017-10-26T18:35:41.325Z,14.50
2017-10-26T18:38:09.413Z,14.50
2017-10-26T18:40:37.505Z,14.50
2017-10-26T18:43:05.597Z,14.40
2017-10-26T18:45:34.461Z,14.50
2017-10-26T18:48:02.552Z,14.40
2017-10-26T18:50:30.680Z,14.50
2017-10-26T18:52:58.786Z,14.40
2017-10-26T18:55:26.879Z,14.40
2017-10-26T18:57:55.748Z,14.20
2017-10-26T19:00:23.845Z,14.20
2017-10-26T19:02:52.709Z,14.20
2017-10-26T19:05:20.810Z,14.20
2017-10-26T19:07:49.668Z,14.10
2017-10-26T19:10:17.777Z,14.10
2017-10-26T19:12:46.649Z,14.10
2017-10-26T19:15:14.738Z,14.10
2017-10-26T19:17:43.593Z,14.10
2017-10-26T19:20:11.677Z,14.10
2017-10-26T19:22:39.764Z,14.10
2017-10-26T19:25:08.620Z,14.00
2017-10-26T19:27:36.715Z,14.00
2017-10-26T19:30:04.810Z,14.00
2017-10-26T19:32:33.661Z,13.90
2017-10-26T19:35:01.785Z,13.90
2017-10-26T19:37:29.860Z,13.90
2017-10-26T19:39:57.967Z,13.80
2017-10-26T19:42:26.059Z,13.80
2017-10-26T19:44:54.227Z,13.80
2017-10-26T19:47:22.297Z,13.80
2017-10-26T19:49:50.473Z,13.70
2017-10-26T19:52:18.551Z,13.70
2017-10-26T19:54:46.665Z,13.70
2017-10-26T19:57:15.510Z,13.60
2017-10-26T19:59:43.605Z,13.60
2017-10-26T20:02:12.480Z,13.60
2017-10-26T20:04:40.572Z,13.50
2017-10-26T20:07:08.644Z,13.60
2017-10-26T20:09:36.796Z,13.60
2017-10-26T20:12:04.936Z,13.60
2017-10-26T20:14:33.024Z,13.60
2017-10-26T20:17:01.876Z,13.60
2017-10-26T20:19:30.736Z,13.60
2017-10-26T20:21:58.820Z,13.60
2017-10-26T20:24:27.684Z,13.60
2017-10-26T20:26:55.780Z,13.60
2017-10-26T20:29:23.876Z,13.60
2017-10-26T20:31:52.753Z,13.50
2017-10-26T20:34:21.611Z,13.50
2017-10-26T20:36:49.713Z,13.50
2017-10-26T20:39:18.579Z,13.50
2017-10-26T20:41:47.308Z,13.40
2017-10-26T20:44:16.169Z,13.40
2017-10-26T20:46:44.259Z,13.40
2017-10-26T20:49:18.824Z,13.40
2017-10-26T20:51:52.592Z,13.40
2017-10-26T20:54:27.170Z,13.40
2017-10-26T20:57:00.772Z,13.40
2017-10-26T20:59:34.527Z,13.40
2017-10-26T21:05:22.639Z,13.30
2017-10-26T21:07:56.665Z,13.30
2017-10-26T21:10:30.323Z,13.20
2017-10-26T21:13:03.972Z,13.20
2017-10-26T21:15:32.074Z,13.20
2017-10-26T21:18:00.938Z,13.20
2017-10-26T21:20:29.032Z,13.20
2017-10-26T21:22:57.109Z,13.20
2017-10-26T21:25:25.235Z,13.10
2017-10-26T21:27:53.316Z,13.10
2017-10-26T21:30:21.414Z,13.00
2017-10-26T21:32:49.508Z,13.00
2017-10-26T21:35:18.744Z,13.00
2017-10-26T21:37:46.844Z,13.00
2017-10-26T21:40:14.943Z,13.00
2017-10-26T21:42:43.021Z,12.90
2017-10-26T21:45:11.867Z,12.90
2017-10-26T21:47:39.994Z,12.90
2017-10-26T21:50:08.839Z,12.90
2017-10-26T21:52:36.919Z,12.90
2017-10-26T21:55:05.043Z,13.00
2017-10-26T21:57:33.150Z,12.80
2017-10-26T22:00:01.236Z,12.80
2017-10-26T22:02:29.344Z,12.80
2017-10-26T22:04:58.202Z,12.80
2017-10-26T22:07:26.295Z,12.80
2017-10-26T22:09:54.390Z,12.80
2017-10-26T22:12:23.342Z,12.70
2017-10-26T22:14:52.169Z,12.60
2017-10-26T22:17:21.041Z,12.70
2017-10-26T22:19:49.160Z,12.70
2017-10-26T22:22:17.249Z,12.70
2017-10-26T22:24:45.346Z,12.60
2017-10-26T22:27:13.445Z,12.70
2017-10-26T22:29:42.312Z,12.70
2017-10-26T22:32:10.418Z,12.70
2017-10-26T22:34:39.282Z,12.70
2017-10-26T22:37:07.372Z,12.70
2017-10-26T22:39:36.225Z,12.70
2017-10-26T22:42:04.321Z,12.70
2017-10-26T22:44:32.399Z,12.70
2017-10-26T22:47:00.517Z,12.70
2017-10-26T22:49:28.606Z,12.70
2017-10-26T22:51:56.695Z,12.60
2017-10-26T22:54:24.792Z,12.60
2017-10-26T22:56:52.884Z,12.60
2017-10-26T22:59:21.733Z,12.60
2017-10-26T23:01:49.828Z,12.60
2017-10-26T23:04:17.916Z,12.60
2017-10-26T23:06:46.783Z,12.70
2017-10-26T23:09:14.868Z,12.70
2017-10-26T23:11:43.749Z,12.70
2017-10-26T23:14:11.841Z,12.70
2017-10-26T23:16:40.708Z,12.70
2017-10-26T23:19:08.807Z,12.70
2017-10-26T23:21:37.683Z,12.60
2017-10-26T23:24:05.763Z,12.60
2017-10-26T23:26:34.628Z,12.60
2017-10-26T23:29:02.721Z,12.50
2017-10-26T23:31:30.844Z,12.50
2017-10-26T23:33:58.927Z,12.40
2017-10-26T23:36:27.025Z,12.40
2017-10-26T23:38:55.121Z,12.30
2017-10-26T23:41:23.988Z,12.20
2017-10-26T23:43:52.085Z,12.20
2017-10-26T23:46:20.947Z,12.20
2017-10-26T23:48:49.033Z,12.20
2017-10-26T23:51:17.123Z,12.20
2017-10-26T23:53:45.977Z,12.20
2017-10-26T23:56:14.071Z,12.20
2017-10-26T23:58:42.220Z,12.20
